sensor_id;sensor_type;location;lat;lon;timestamp;P1;durP1;ratioP1;P2;durP2;ratioP2
2299;SDS011;1158;48.750;9.078;2022-08-14T00:01:10;6.17;;;5.60;;
2299;SDS011;1158;48.750;9.078;2022-08-14T00:03:37;10.63;;;5.53;;
2299;SDS011;1158;48.750;9.078;2022-08-14T00:06:04;8.57;;;5.33;;
2299;SDS011;1158;48.750;9.078;2022-08-14T00:08:31;13.67;;;9.80;;
2299;SDS011;1158;48.750;9.078;2022-08-14T00:10:58;13.97;;;8.80;;
2299;SDS011;1158;48.750;9.078;2022-08-14T00:13:25;9.40;;;7.40;;
2299;SDS011;1158;48.750;9.078;2022-08-14T00:15:55;10.73;;;6.73;;
2299;SDS011;1158;48.750;9.078;2022-08-14T00:18:24;10.17;;;6.43;;
2299;SDS011;1158;48.750;9.078;2022-08-14T00:20:52;7.37;;;5.70;;
2299;SDS011;1158;48.750;9.078;2022-08-14T00:23:20;7.53;;;6.17;;
2299;SDS011;1158;48.750;9.078;2022-08-14T00:25:47;8.97;;;5.90;;
2299;SDS011;1158;48.750;9.078;2022-08-14T00:28:15;8.37;;;5.80;;
2299;SDS011;1158;48.750;9.078;2022-08-14T00:30:43;6.70;;;5.80;;
2299;SDS011;1158;48.750;9.078;2022-08-14T00:33:11;7.70;;;6.23;;
2299;SDS011;1158;48.750;9.078;2022-08-14T00:35:38;8.30;;;5.23;;
2299;SDS011;1158;48.750;9.078;2022-08-14T00:38:05;6.27;;;5.60;;
2299;SDS011;1158;48.750;9.078;2022-08-14T00:40:31;5.83;;;5.00;;
2299;SDS011;1158;48.750;9.078;2022-08-14T00:42:58;6.00;;;4.70;;
2299;SDS011;1158;48.750;9.078;2022-08-14T00:45:25;6.30;;;5.30;;
2299;SDS011;1158;48.750;9.078;2022-08-14T00:47:51;7.50;;;5.33;;
2299;SDS011;1158;48.750;9.078;2022-08-14T00:50:20;6.63;;;5.90;;
2299;SDS011;1158;48.750;9.078;2022-08-14T00:52:50;6.77;;;5.80;;
2299;SDS011;1158;48.750;9.078;2022-08-14T00:55:17;6.00;;;5.13;;
2299;SDS011;1158;48.750;9.078;2022-08-14T00:57:45;6.20;;;5.13;;
2299;SDS011;1158;48.750;9.078;2022-08-14T01:00:33;6.50;;;5.40;;
2299;SDS011;1158;48.750;9.078;2022-08-14T01:03:00;6.37;;;5.70;;
2299;SDS011;1158;48.750;9.078;2022-08-14T01:05:30;6.90;;;6.20;;
2299;SDS011;1158;48.750;9.078;2022-08-14T01:07:58;5.97;;;5.00;;
2299;SDS011;1158;48.750;9.078;2022-08-14T01:10:26;8.20;;;6.00;;
2299;SDS011;1158;48.750;9.078;2022-08-14T01:13:09;6.27;;;5.67;;
2299;SDS011;1158;48.750;9.078;2022-08-14T01:15:40;6.53;;;5.83;;
2299;SDS011;1158;48.750;9.078;2022-08-14T01:18:07;7.00;;;5.40;;
2299;SDS011;1158;48.750;9.078;2022-08-14T01:20:53;6.17;;;5.20;;
2299;SDS011;1158;48.750;9.078;2022-08-14T01:23:32;6.10;;;5.50;;
2299;SDS011;1158;48.750;9.078;2022-08-14T01:26:03;6.50;;;5.90;;
2299;SDS011;1158;48.750;9.078;2022-08-14T01:28:30;6.10;;;5.50;;
2299;SDS011;1158;48.750;9.078;2022-08-14T01:31:02;7.87;;;6.30;;
2299;SDS011;1158;48.750;9.078;2022-08-14T01:33:32;9.33;;;6.00;;
2299;SDS011;1158;48.750;9.078;2022-08-14T01:36:05;5.83;;;5.23;;
2299;SDS011;1158;48.750;9.078;2022-08-14T01:38:36;7.80;;;5.80;;
2299;SDS011;1158;48.750;9.078;2022-08-14T01:41:06;6.13;;;5.10;;
2299;SDS011;1158;48.750;9.078;2022-08-14T01:43:41;6.00;;;5.40;;
2299;SDS011;1158;48.750;9.078;2022-08-14T01:46:09;5.73;;;5.13;;
2299;SDS011;1158;48.750;9.078;2022-08-14T01:48:36;6.10;;;5.50;;
2299;SDS011;1158;48.750;9.078;2022-08-14T01:51:08;9.47;;;5.20;;
2299;SDS011;1158;48.750;9.078;2022-08-14T01:53:36;6.20;;;5.60;;
2299;SDS011;1158;48.750;9.078;2022-08-14T01:56:05;6.33;;;5.53;;
2299;SDS011;1158;48.750;9.078;2022-08-14T01:58:32;7.80;;;6.10;;
2299;SDS011;1158;48.750;9.078;2022-08-14T02:00:59;7.03;;;5.87;;
2299;SDS011;1158;48.750;9.078;2022-08-14T02:03:29;9.20;;;6.30;;
2299;SDS011;1158;48.750;9.078;2022-08-14T02:06:04;7.63;;;5.93;;
2299;SDS011;1158;48.750;9.078;2022-08-14T02:08:31;6.63;;;5.70;;
2299;SDS011;1158;48.750;9.078;2022-08-14T02:11:03;6.50;;;5.60;;
2299;SDS011;1158;48.750;9.078;2022-08-14T02:13:47;6.33;;;5.30;;
2299;SDS011;1158;48.750;9.078;2022-08-14T02:16:16;6.87;;;5.60;;
2299;SDS011;1158;48.750;9.078;2022-08-14T02:18:44;6.27;;;5.70;;
2299;SDS011;1158;48.750;9.078;2022-08-14T02:21:13;8.20;;;6.23;;
2299;SDS011;1158;48.750;9.078;2022-08-14T02:23:42;6.53;;;5.93;;
2299;SDS011;1158;48.750;9.078;2022-08-14T02:26:15;7.43;;;6.40;;
2299;SDS011;1158;48.750;9.078;2022-08-14T02:28:44;6.20;;;5.50;;
2299;SDS011;1158;48.750;9.078;2022-08-14T02:31:11;6.50;;;5.90;;
2299;SDS011;1158;48.750;9.078;2022-08-14T02:33:39;8.13;;;6.50;;
2299;SDS011;1158;48.750;9.078;2022-08-14T02:36:07;7.53;;;6.10;;
2299;SDS011;1158;48.750;9.078;2022-08-14T02:38:35;6.00;;;5.47;;
2299;SDS011;1158;48.750;9.078;2022-08-14T02:41:02;8.10;;;6.33;;
2299;SDS011;1158;48.750;9.078;2022-08-14T02:43:31;8.77;;;6.03;;
2299;SDS011;1158;48.750;9.078;2022-08-14T02:45:58;7.20;;;6.50;;
2299;SDS011;1158;48.750;9.078;2022-08-14T02:48:27;7.07;;;5.90;;
2299;SDS011;1158;48.750;9.078;2022-08-14T02:50:55;6.87;;;6.27;;
2299;SDS011;1158;48.750;9.078;2022-08-14T02:53:23;7.00;;;6.30;;
2299;SDS011;1158;48.750;9.078;2022-08-14T02:55:50;7.40;;;5.93;;
2299;SDS011;1158;48.750;9.078;2022-08-14T02:58:16;6.97;;;6.27;;
2299;SDS011;1158;48.750;9.078;2022-08-14T03:00:49;9.37;;;5.70;;
2299;SDS011;1158;48.750;9.078;2022-08-14T03:03:16;6.67;;;6.00;;
2299;SDS011;1158;48.750;9.078;2022-08-14T03:05:47;6.87;;;6.17;;
2299;SDS011;1158;48.750;9.078;2022-08-14T03:08:16;6.70;;;6.00;;
2299;SDS011;1158;48.750;9.078;2022-08-14T03:10:43;7.03;;;6.30;;
2299;SDS011;1158;48.750;9.078;2022-08-14T03:13:10;6.67;;;5.97;;
2299;SDS011;1158;48.750;9.078;2022-08-14T03:15:37;6.87;;;6.17;;
2299;SDS011;1158;48.750;9.078;2022-08-14T03:18:09;7.93;;;6.37;;
2299;SDS011;1158;48.750;9.078;2022-08-14T03:20:36;10.03;;;6.13;;
2299;SDS011;1158;48.750;9.078;2022-08-14T03:23:03;6.93;;;5.80;;
2299;SDS011;1158;48.750;9.078;2022-08-14T03:25:30;9.10;;;6.47;;
2299;SDS011;1158;48.750;9.078;2022-08-14T03:27:57;7.03;;;6.33;;
2299;SDS011;1158;48.750;9.078;2022-08-14T03:30:28;8.60;;;5.80;;
2299;SDS011;1158;48.750;9.078;2022-08-14T03:32:56;7.30;;;6.23;;
2299;SDS011;1158;48.750;9.078;2022-08-14T03:35:24;9.10;;;6.50;;
2299;SDS011;1158;48.750;9.078;2022-08-14T03:37:52;7.10;;;6.30;;
2299;SDS011;1158;48.750;9.078;2022-08-14T03:40:19;6.97;;;6.27;;
2299;SDS011;1158;48.750;9.078;2022-08-14T03:42:46;7.57;;;6.03;;
2299;SDS011;1158;48.750;9.078;2022-08-14T03:45:14;8.23;;;6.10;;
2299;SDS011;1158;48.750;9.078;2022-08-14T03:47:42;7.80;;;7.00;;
2299;SDS011;1158;48.750;9.078;2022-08-14T03:50:09;7.23;;;6.53;;
2299;SDS011;1158;48.750;9.078;2022-08-14T03:52:39;9.03;;;6.97;;
2299;SDS011;1158;48.750;9.078;2022-08-14T03:55:09;7.57;;;6.87;;
2299;SDS011;1158;48.750;9.078;2022-08-14T03:57:37;7.17;;;6.47;;
2299;SDS011;1158;48.750;9.078;2022-08-14T04:00:04;9.23;;;7.07;;
2299;SDS011;1158;48.750;9.078;2022-08-14T04:02:35;8.47;;;6.90;;
2299;SDS011;1158;48.750;9.078;2022-08-14T04:05:02;7.43;;;6.73;;
2299;SDS011;1158;48.750;9.078;2022-08-14T04:07:29;7.07;;;6.37;;
2299;SDS011;1158;48.750;9.078;2022-08-14T04:09:58;8.63;;;7.17;;
2299;SDS011;1158;48.750;9.078;2022-08-14T04:12:25;8.10;;;6.10;;
2299;SDS011;1158;48.750;9.078;2022-08-14T04:14:52;11.23;;;7.67;;
2299;SDS011;1158;48.750;9.078;2022-08-14T04:17:19;8.47;;;5.87;;
2299;SDS011;1158;48.750;9.078;2022-08-14T04:19:46;7.40;;;6.70;;
2299;SDS011;1158;48.750;9.078;2022-08-14T04:22:12;7.20;;;6.30;;
2299;SDS011;1158;48.750;9.078;2022-08-14T04:24:39;12.80;;;6.40;;
2299;SDS011;1158;48.750;9.078;2022-08-14T04:27:09;8.10;;;6.80;;
2299;SDS011;1158;48.750;9.078;2022-08-14T04:29:37;7.63;;;6.83;;
2299;SDS011;1158;48.750;9.078;2022-08-14T04:32:06;7.97;;;6.70;;
2299;SDS011;1158;48.750;9.078;2022-08-14T04:34:34;7.30;;;6.50;;
2299;SDS011;1158;48.750;9.078;2022-08-14T04:37:01;8.47;;;6.43;;
2299;SDS011;1158;48.750;9.078;2022-08-14T04:39:45;7.40;;;6.23;;
2299;SDS011;1158;48.750;9.078;2022-08-14T04:42:31;8.03;;;6.17;;
2299;SDS011;1158;48.750;9.078;2022-08-14T04:45:15;8.43;;;7.33;;
2299;SDS011;1158;48.750;9.078;2022-08-14T04:47:42;6.87;;;5.70;;
2299;SDS011;1158;48.750;9.078;2022-08-14T04:50:26;7.90;;;5.90;;
2299;SDS011;1158;48.750;9.078;2022-08-14T04:52:54;7.50;;;5.97;;
2299;SDS011;1158;48.750;9.078;2022-08-14T04:55:20;6.60;;;5.90;;
2299;SDS011;1158;48.750;9.078;2022-08-14T04:57:48;7.33;;;6.50;;
2299;SDS011;1158;48.750;9.078;2022-08-14T05:00:16;7.80;;;5.77;;
2299;SDS011;1158;48.750;9.078;2022-08-14T05:02:42;7.07;;;5.70;;
2299;SDS011;1158;48.750;9.078;2022-08-14T05:05:09;5.87;;;5.27;;
2299;SDS011;1158;48.750;9.078;2022-08-14T05:07:36;6.47;;;5.87;;
2299;SDS011;1158;48.750;9.078;2022-08-14T05:10:04;6.07;;;5.47;;
2299;SDS011;1158;48.750;9.078;2022-08-14T05:12:31;7.00;;;6.30;;
2299;SDS011;1158;48.750;9.078;2022-08-14T05:14:59;6.23;;;5.63;;
2299;SDS011;1158;48.750;9.078;2022-08-14T05:17:26;6.53;;;5.27;;
2299;SDS011;1158;48.750;9.078;2022-08-14T05:19:53;5.40;;;4.90;;
2299;SDS011;1158;48.750;9.078;2022-08-14T05:22:20;6.10;;;5.50;;
2299;SDS011;1158;48.750;9.078;2022-08-14T05:24:47;5.50;;;5.00;;
2299;SDS011;1158;48.750;9.078;2022-08-14T05:27:14;5.50;;;5.00;;
2299;SDS011;1158;48.750;9.078;2022-08-14T05:29:44;5.00;;;4.43;;
2299;SDS011;1158;48.750;9.078;2022-08-14T05:32:13;5.70;;;5.17;;
2299;SDS011;1158;48.750;9.078;2022-08-14T05:34:40;6.60;;;4.70;;
2299;SDS011;1158;48.750;9.078;2022-08-14T05:37:07;6.23;;;5.17;;
2299;SDS011;1158;48.750;9.078;2022-08-14T05:39:33;8.70;;;4.83;;
2299;SDS011;1158;48.750;9.078;2022-08-14T05:42:00;5.03;;;4.53;;
2299;SDS011;1158;48.750;9.078;2022-08-14T05:44:27;5.00;;;4.40;;
2299;SDS011;1158;48.750;9.078;2022-08-14T05:46:53;5.00;;;4.50;;
2299;SDS011;1158;48.750;9.078;2022-08-14T05:49:21;4.60;;;4.20;;
2299;SDS011;1158;48.750;9.078;2022-08-14T05:51:48;4.50;;;4.00;;
2299;SDS011;1158;48.750;9.078;2022-08-14T05:54:15;4.10;;;3.70;;
2299;SDS011;1158;48.750;9.078;2022-08-14T05:56:42;3.93;;;3.10;;
2299;SDS011;1158;48.750;9.078;2022-08-14T05:59:09;4.17;;;3.53;;
2299;SDS011;1158;48.750;9.078;2022-08-14T06:01:36;4.40;;;3.10;;
2299;SDS011;1158;48.750;9.078;2022-08-14T06:04:03;3.53;;;3.20;;
2299;SDS011;1158;48.750;9.078;2022-08-14T06:06:31;3.77;;;3.40;;
2299;SDS011;1158;48.750;9.078;2022-08-14T06:08:58;3.97;;;3.57;;
2299;SDS011;1158;48.750;9.078;2022-08-14T06:11:24;4.87;;;3.40;;
2299;SDS011;1158;48.750;9.078;2022-08-14T06:13:51;3.50;;;3.00;;
2299;SDS011;1158;48.750;9.078;2022-08-14T06:16:18;3.10;;;2.47;;
2299;SDS011;1158;48.750;9.078;2022-08-14T06:18:45;3.87;;;3.23;;
2299;SDS011;1158;48.750;9.078;2022-08-14T06:21:13;4.40;;;3.40;;
2299;SDS011;1158;48.750;9.078;2022-08-14T06:23:41;3.33;;;3.03;;
2299;SDS011;1158;48.750;9.078;2022-08-14T06:26:08;3.87;;;2.67;;
2299;SDS011;1158;48.750;9.078;2022-08-14T06:28:35;3.60;;;3.10;;
2299;SDS011;1158;48.750;9.078;2022-08-14T06:31:02;3.00;;;2.70;;
2299;SDS011;1158;48.750;9.078;2022-08-14T06:33:28;4.73;;;3.30;;
2299;SDS011;1158;48.750;9.078;2022-08-14T06:35:55;3.07;;;2.77;;
2299;SDS011;1158;48.750;9.078;2022-08-14T06:38:22;3.30;;;2.70;;
2299;SDS011;1158;48.750;9.078;2022-08-14T06:40:50;4.40;;;2.70;;
2299;SDS011;1158;48.750;9.078;2022-08-14T06:43:17;3.87;;;3.23;;
2299;SDS011;1158;48.750;9.078;2022-08-14T06:45:45;3.83;;;2.40;;
2299;SDS011;1158;48.750;9.078;2022-08-14T06:48:13;3.13;;;2.53;;
2299;SDS011;1158;48.750;9.078;2022-08-14T06:50:40;4.13;;;2.30;;
2299;SDS011;1158;48.750;9.078;2022-08-14T06:53:07;3.10;;;2.67;;
2299;SDS011;1158;48.750;9.078;2022-08-14T06:55:35;4.20;;;2.70;;
2299;SDS011;1158;48.750;9.078;2022-08-14T06:58:04;2.47;;;2.27;;
2299;SDS011;1158;48.750;9.078;2022-08-14T07:00:30;3.23;;;2.37;;
2299;SDS011;1158;48.750;9.078;2022-08-14T07:02:57;3.13;;;2.30;;
2299;SDS011;1158;48.750;9.078;2022-08-14T07:05:56;3.43;;;2.57;;
2299;SDS011;1158;48.750;9.078;2022-08-14T07:08:23;3.70;;;2.67;;
2299;SDS011;1158;48.750;9.078;2022-08-14T07:10:52;3.50;;;2.50;;
2299;SDS011;1158;48.750;9.078;2022-08-14T07:13:23;3.10;;;2.40;;
2299;SDS011;1158;48.750;9.078;2022-08-14T07:15:51;4.90;;;2.40;;
2299;SDS011;1158;48.750;9.078;2022-08-14T07:18:20;3.90;;;2.50;;
2299;SDS011;1158;48.750;9.078;2022-08-14T07:20:47;5.00;;;2.50;;
2299;SDS011;1158;48.750;9.078;2022-08-14T07:23:14;5.13;;;2.50;;
2299;SDS011;1158;48.750;9.078;2022-08-14T07:25:42;2.87;;;2.30;;
2299;SDS011;1158;48.750;9.078;2022-08-14T07:28:09;3.50;;;2.43;;
2299;SDS011;1158;48.750;9.078;2022-08-14T07:30:38;5.60;;;2.90;;
2299;SDS011;1158;48.750;9.078;2022-08-14T07:33:05;5.83;;;2.33;;
2299;SDS011;1158;48.750;9.078;2022-08-14T07:35:33;4.73;;;2.80;;
2299;SDS011;1158;48.750;9.078;2022-08-14T07:38:01;6.20;;;2.97;;
2299;SDS011;1158;48.750;9.078;2022-08-14T07:40:28;4.27;;;3.30;;
2299;SDS011;1158;48.750;9.078;2022-08-14T07:42:55;2.93;;;2.63;;
2299;SDS011;1158;48.750;9.078;2022-08-14T07:45:22;5.27;;;2.60;;
2299;SDS011;1158;48.750;9.078;2022-08-14T07:47:50;6.63;;;3.07;;
2299;SDS011;1158;48.750;9.078;2022-08-14T07:50:20;4.20;;;2.40;;
2299;SDS011;1158;48.750;9.078;2022-08-14T07:52:47;4.90;;;2.93;;
2299;SDS011;1158;48.750;9.078;2022-08-14T07:55:14;5.03;;;2.53;;
2299;SDS011;1158;48.750;9.078;2022-08-14T07:57:43;4.43;;;2.53;;
2299;SDS011;1158;48.750;9.078;2022-08-14T08:00:12;2.73;;;2.20;;
2299;SDS011;1158;48.750;9.078;2022-08-14T08:02:41;3.83;;;2.73;;
2299;SDS011;1158;48.750;9.078;2022-08-14T08:05:10;3.37;;;2.10;;
2299;SDS011;1158;48.750;9.078;2022-08-14T08:07:38;3.70;;;2.80;;
2299;SDS011;1158;48.750;9.078;2022-08-14T08:10:08;4.27;;;2.80;;
2299;SDS011;1158;48.750;9.078;2022-08-14T08:12:54;4.20;;;3.03;;
2299;SDS011;1158;48.750;9.078;2022-08-14T08:15:22;3.40;;;2.60;;
2299;SDS011;1158;48.750;9.078;2022-08-14T08:17:50;3.97;;;3.03;;
2299;SDS011;1158;48.750;9.078;2022-08-14T08:20:20;4.07;;;2.50;;
2299;SDS011;1158;48.750;9.078;2022-08-14T08:22:49;4.97;;;2.50;;
2299;SDS011;1158;48.750;9.078;2022-08-14T08:25:16;3.33;;;2.40;;
2299;SDS011;1158;48.750;9.078;2022-08-14T08:27:52;2.90;;;2.53;;
2299;SDS011;1158;48.750;9.078;2022-08-14T08:30:24;3.10;;;2.70;;
2299;SDS011;1158;48.750;9.078;2022-08-14T08:32:52;3.80;;;2.37;;
2299;SDS011;1158;48.750;9.078;2022-08-14T08:35:22;3.97;;;2.40;;
2299;SDS011;1158;48.750;9.078;2022-08-14T08:37:51;3.23;;;2.20;;
2299;SDS011;1158;48.750;9.078;2022-08-14T08:40:23;2.87;;;2.43;;
2299;SDS011;1158;48.750;9.078;2022-08-14T08:42:50;3.90;;;2.63;;
2299;SDS011;1158;48.750;9.078;2022-08-14T08:45:17;3.90;;;2.33;;
2299;SDS011;1158;48.750;9.078;2022-08-14T08:47:46;2.80;;;2.20;;
2299;SDS011;1158;48.750;9.078;2022-08-14T08:50:14;3.07;;;2.70;;
2299;SDS011;1158;48.750;9.078;2022-08-14T08:52:48;2.70;;;2.30;;
2299;SDS011;1158;48.750;9.078;2022-08-14T08:55:15;4.13;;;2.60;;
2299;SDS011;1158;48.750;9.078;2022-08-14T08:57:52;4.27;;;2.40;;
2299;SDS011;1158;48.750;9.078;2022-08-14T09:00:19;4.07;;;2.70;;
2299;SDS011;1158;48.750;9.078;2022-08-14T09:02:51;4.57;;;2.73;;
2299;SDS011;1158;48.750;9.078;2022-08-14T09:05:20;4.63;;;2.73;;
2299;SDS011;1158;48.750;9.078;2022-08-14T09:07:48;3.63;;;2.77;;
2299;SDS011;1158;48.750;9.078;2022-08-14T09:10:15;4.97;;;2.80;;
2299;SDS011;1158;48.750;9.078;2022-08-14T09:12:43;3.07;;;2.20;;
2299;SDS011;1158;48.750;9.078;2022-08-14T09:15:10;3.40;;;3.10;;
2299;SDS011;1158;48.750;9.078;2022-08-14T09:17:37;3.17;;;2.80;;
2299;SDS011;1158;48.750;9.078;2022-08-14T09:20:05;3.50;;;2.90;;
2299;SDS011;1158;48.750;9.078;2022-08-14T09:22:32;4.70;;;2.43;;
2299;SDS011;1158;48.750;9.078;2022-08-14T09:25:01;4.00;;;2.70;;
2299;SDS011;1158;48.750;9.078;2022-08-14T09:27:30;3.60;;;2.53;;
2299;SDS011;1158;48.750;9.078;2022-08-14T09:29:57;3.63;;;2.70;;
2299;SDS011;1158;48.750;9.078;2022-08-14T09:32:31;4.20;;;2.83;;
2299;SDS011;1158;48.750;9.078;2022-08-14T09:35:20;4.77;;;2.80;;
2299;SDS011;1158;48.750;9.078;2022-08-14T09:37:54;2.87;;;2.60;;
2299;SDS011;1158;48.750;9.078;2022-08-14T09:40:35;3.00;;;2.53;;
2299;SDS011;1158;48.750;9.078;2022-08-14T09:43:13;3.90;;;2.70;;
2299;SDS011;1158;48.750;9.078;2022-08-14T09:45:53;5.47;;;2.90;;
2299;SDS011;1158;48.750;9.078;2022-08-14T09:48:23;4.13;;;3.00;;
2299;SDS011;1158;48.750;9.078;2022-08-14T09:50:52;3.57;;;2.50;;
2299;SDS011;1158;48.750;9.078;2022-08-14T09:53:32;5.27;;;3.30;;
2299;SDS011;1158;48.750;9.078;2022-08-14T09:56:06;3.90;;;2.67;;
2299;SDS011;1158;48.750;9.078;2022-08-14T09:58:34;5.73;;;2.83;;
2299;SDS011;1158;48.750;9.078;2022-08-14T10:01:07;2.87;;;2.57;;
2299;SDS011;1158;48.750;9.078;2022-08-14T10:03:37;4.53;;;2.63;;
2299;SDS011;1158;48.750;9.078;2022-08-14T10:06:13;3.70;;;2.90;;
2299;SDS011;1158;48.750;9.078;2022-08-14T10:08:43;3.50;;;3.10;;
2299;SDS011;1158;48.750;9.078;2022-08-14T10:11:14;5.33;;;3.00;;
2299;SDS011;1158;48.750;9.078;2022-08-14T10:13:43;5.17;;;3.33;;
2299;SDS011;1158;48.750;9.078;2022-08-14T10:16:10;3.73;;;2.90;;
2299;SDS011;1158;48.750;9.078;2022-08-14T10:18:38;6.53;;;3.70;;
2299;SDS011;1158;48.750;9.078;2022-08-14T10:21:07;3.80;;;3.07;;
2299;SDS011;1158;48.750;9.078;2022-08-14T10:23:43;6.20;;;2.80;;
2299;SDS011;1158;48.750;9.078;2022-08-14T10:26:15;5.50;;;3.13;;
2299;SDS011;1158;48.750;9.078;2022-08-14T10:28:44;4.63;;;3.40;;
2299;SDS011;1158;48.750;9.078;2022-08-14T10:31:19;5.60;;;3.00;;
2299;SDS011;1158;48.750;9.078;2022-08-14T10:34:01;3.33;;;2.90;;
2299;SDS011;1158;48.750;9.078;2022-08-14T10:36:31;4.10;;;3.23;;
2299;SDS011;1158;48.750;9.078;2022-08-14T10:39:00;4.37;;;3.40;;
2299;SDS011;1158;48.750;9.078;2022-08-14T10:41:37;6.73;;;3.10;;
2299;SDS011;1158;48.750;9.078;2022-08-14T10:44:06;7.30;;;3.00;;
2299;SDS011;1158;48.750;9.078;2022-08-14T10:46:38;4.77;;;3.37;;
2299;SDS011;1158;48.750;9.078;2022-08-14T10:49:16;3.27;;;2.97;;
2299;SDS011;1158;48.750;9.078;2022-08-14T10:51:54;3.63;;;3.30;;
2299;SDS011;1158;48.750;9.078;2022-08-14T10:54:29;3.50;;;2.90;;
2299;SDS011;1158;48.750;9.078;2022-08-14T10:57:18;5.87;;;3.40;;
2299;SDS011;1158;48.750;9.078;2022-08-14T10:59:47;3.57;;;3.20;;
2299;SDS011;1158;48.750;9.078;2022-08-14T11:02:20;4.40;;;3.77;;
2299;SDS011;1158;48.750;9.078;2022-08-14T11:05:06;6.70;;;3.53;;
2299;SDS011;1158;48.750;9.078;2022-08-14T11:07:35;4.60;;;3.27;;
2299;SDS011;1158;48.750;9.078;2022-08-14T11:10:05;3.90;;;3.33;;
2299;SDS011;1158;48.750;9.078;2022-08-14T11:12:40;4.77;;;3.30;;
2299;SDS011;1158;48.750;9.078;2022-08-14T11:15:10;3.40;;;3.03;;
2299;SDS011;1158;48.750;9.078;2022-08-14T11:17:38;3.60;;;3.30;;
2299;SDS011;1158;48.750;9.078;2022-08-14T11:20:05;4.60;;;3.30;;
2299;SDS011;1158;48.750;9.078;2022-08-14T11:22:36;6.27;;;3.27;;
2299;SDS011;1158;48.750;9.078;2022-08-14T11:25:07;4.37;;;3.10;;
2299;SDS011;1158;48.750;9.078;2022-08-14T11:27:35;4.77;;;3.40;;
2299;SDS011;1158;48.750;9.078;2022-08-14T11:30:07;3.80;;;3.07;;
2299;SDS011;1158;48.750;9.078;2022-08-14T11:32:37;3.37;;;3.00;;
2299;SDS011;1158;48.750;9.078;2022-08-14T11:35:06;3.53;;;3.23;;
2299;SDS011;1158;48.750;9.078;2022-08-14T11:37:47;3.70;;;2.80;;
2299;SDS011;1158;48.750;9.078;2022-08-14T11:40:15;4.33;;;3.30;;
2299;SDS011;1158;48.750;9.078;2022-08-14T11:42:44;5.13;;;3.00;;
2299;SDS011;1158;48.750;9.078;2022-08-14T11:45:13;3.90;;;3.20;;
2299;SDS011;1158;48.750;9.078;2022-08-14T11:47:41;3.83;;;3.10;;
2299;SDS011;1158;48.750;9.078;2022-08-14T11:50:11;4.80;;;3.23;;
2299;SDS011;1158;48.750;9.078;2022-08-14T11:52:41;4.33;;;3.60;;
2299;SDS011;1158;48.750;9.078;2022-08-14T11:55:10;3.00;;;2.70;;
2299;SDS011;1158;48.750;9.078;2022-08-14T11:57:38;5.60;;;2.43;;
2299;SDS011;1158;48.750;9.078;2022-08-14T12:00:06;3.80;;;3.20;;
2299;SDS011;1158;48.750;9.078;2022-08-14T12:02:47;3.87;;;2.90;;
2299;SDS011;1158;48.750;9.078;2022-08-14T12:05:15;3.50;;;3.20;;
2299;SDS011;1158;48.750;9.078;2022-08-14T12:07:46;4.50;;;3.37;;
2299;SDS011;1158;48.750;9.078;2022-08-14T12:10:13;3.90;;;2.87;;
2299;SDS011;1158;48.750;9.078;2022-08-14T12:12:43;7.90;;;3.23;;
2299;SDS011;1158;48.750;9.078;2022-08-14T12:15:09;3.30;;;3.00;;
2299;SDS011;1158;48.750;9.078;2022-08-14T12:17:44;4.27;;;3.70;;
2299;SDS011;1158;48.750;9.078;2022-08-14T12:20:12;3.00;;;2.70;;
2299;SDS011;1158;48.750;9.078;2022-08-14T12:22:40;4.80;;;3.00;;
2299;SDS011;1158;48.750;9.078;2022-08-14T12:25:10;2.80;;;2.50;;
2299;SDS011;1158;48.750;9.078;2022-08-14T12:27:39;6.90;;;3.10;;
2299;SDS011;1158;48.750;9.078;2022-08-14T12:30:08;3.60;;;2.60;;
2299;SDS011;1158;48.750;9.078;2022-08-14T12:32:38;3.70;;;2.60;;
2299;SDS011;1158;48.750;9.078;2022-08-14T12:35:08;2.93;;;2.63;;
2299;SDS011;1158;48.750;9.078;2022-08-14T12:37:35;6.00;;;2.83;;
2299;SDS011;1158;48.750;9.078;2022-08-14T12:40:12;3.20;;;2.90;;
2299;SDS011;1158;48.750;9.078;2022-08-14T12:42:40;4.30;;;2.63;;
2299;SDS011;1158;48.750;9.078;2022-08-14T12:45:08;5.23;;;2.87;;
2299;SDS011;1158;48.750;9.078;2022-08-14T12:47:37;4.93;;;3.10;;
2299;SDS011;1158;48.750;9.078;2022-08-14T12:50:04;3.93;;;2.93;;
2299;SDS011;1158;48.750;9.078;2022-08-14T12:52:34;2.93;;;2.63;;
2299;SDS011;1158;48.750;9.078;2022-08-14T12:55:05;2.67;;;2.37;;
2299;SDS011;1158;48.750;9.078;2022-08-14T12:57:35;3.63;;;2.50;;
2299;SDS011;1158;48.750;9.078;2022-08-14T13:00:07;2.50;;;2.20;;
2299;SDS011;1158;48.750;9.078;2022-08-14T13:02:37;3.53;;;3.20;;
2299;SDS011;1158;48.750;9.078;2022-08-14T13:05:05;3.40;;;2.60;;
2299;SDS011;1158;48.750;9.078;2022-08-14T13:07:35;6.33;;;2.60;;
2299;SDS011;1158;48.750;9.078;2022-08-14T13:10:04;2.30;;;2.00;;
2299;SDS011;1158;48.750;9.078;2022-08-14T13:12:32;2.93;;;2.33;;
2299;SDS011;1158;48.750;9.078;2022-08-14T13:15:02;2.93;;;2.17;;
2299;SDS011;1158;48.750;9.078;2022-08-14T13:17:29;3.57;;;2.10;;
2299;SDS011;1158;48.750;9.078;2022-08-14T13:19:57;2.40;;;2.03;;
2299;SDS011;1158;48.750;9.078;2022-08-14T13:22:26;3.10;;;2.00;;
2299;SDS011;1158;48.750;9.078;2022-08-14T13:24:54;4.23;;;2.10;;
2299;SDS011;1158;48.750;9.078;2022-08-14T13:27:22;2.73;;;2.07;;
2299;SDS011;1158;48.750;9.078;2022-08-14T13:29:50;3.10;;;1.87;;
2299;SDS011;1158;48.750;9.078;2022-08-14T13:32:17;2.93;;;2.40;;
2299;SDS011;1158;48.750;9.078;2022-08-14T13:34:46;2.30;;;2.00;;
2299;SDS011;1158;48.750;9.078;2022-08-14T13:37:14;2.83;;;1.93;;
2299;SDS011;1158;48.750;9.078;2022-08-14T13:39:43;3.60;;;1.87;;
2299;SDS011;1158;48.750;9.078;2022-08-14T13:42:14;2.23;;;2.03;;
2299;SDS011;1158;48.750;9.078;2022-08-14T13:44:42;2.63;;;2.10;;
2299;SDS011;1158;48.750;9.078;2022-08-14T13:47:10;3.17;;;1.73;;
2299;SDS011;1158;48.750;9.078;2022-08-14T13:49:38;3.30;;;2.20;;
2299;SDS011;1158;48.750;9.078;2022-08-14T13:52:06;3.67;;;1.93;;
2299;SDS011;1158;48.750;9.078;2022-08-14T13:54:36;3.73;;;1.80;;
2299;SDS011;1158;48.750;9.078;2022-08-14T13:57:06;3.70;;;1.80;;
2299;SDS011;1158;48.750;9.078;2022-08-14T13:59:38;3.30;;;1.97;;
2299;SDS011;1158;48.750;9.078;2022-08-14T14:02:09;4.07;;;1.70;;
2299;SDS011;1158;48.750;9.078;2022-08-14T14:04:37;3.50;;;1.90;;
2299;SDS011;1158;48.750;9.078;2022-08-14T14:07:06;3.23;;;2.10;;
2299;SDS011;1158;48.750;9.078;2022-08-14T14:09:35;2.93;;;1.87;;
2299;SDS011;1158;48.750;9.078;2022-08-14T14:12:05;2.27;;;1.93;;
2299;SDS011;1158;48.750;9.078;2022-08-14T14:14:33;2.00;;;1.80;;
2299;SDS011;1158;48.750;9.078;2022-08-14T14:17:03;4.10;;;1.80;;
2299;SDS011;1158;48.750;9.078;2022-08-14T14:19:30;3.57;;;1.73;;
2299;SDS011;1158;48.750;9.078;2022-08-14T14:21:59;2.67;;;2.13;;
2299;SDS011;1158;48.750;9.078;2022-08-14T14:24:26;3.40;;;2.07;;
2299;SDS011;1158;48.750;9.078;2022-08-14T14:26:53;3.13;;;2.00;;
2299;SDS011;1158;48.750;9.078;2022-08-14T14:29:22;2.77;;;1.80;;
2299;SDS011;1158;48.750;9.078;2022-08-14T14:31:51;3.53;;;1.80;;
2299;SDS011;1158;48.750;9.078;2022-08-14T14:34:19;3.20;;;1.97;;
2299;SDS011;1158;48.750;9.078;2022-08-14T14:36:49;2.80;;;2.00;;
2299;SDS011;1158;48.750;9.078;2022-08-14T14:39:19;3.17;;;2.20;;
2299;SDS011;1158;48.750;9.078;2022-08-14T14:41:50;3.00;;;2.07;;
2299;SDS011;1158;48.750;9.078;2022-08-14T14:44:19;3.80;;;1.90;;
2299;SDS011;1158;48.750;9.078;2022-08-14T14:46:48;2.80;;;2.50;;
2299;SDS011;1158;48.750;9.078;2022-08-14T14:49:16;2.30;;;2.00;;
2299;SDS011;1158;48.750;9.078;2022-08-14T14:51:45;2.83;;;2.20;;
2299;SDS011;1158;48.750;9.078;2022-08-14T14:54:12;2.70;;;2.20;;
2299;SDS011;1158;48.750;9.078;2022-08-14T14:56:42;2.10;;;1.90;;
2299;SDS011;1158;48.750;9.078;2022-08-14T14:59:10;3.80;;;2.20;;
2299;SDS011;1158;48.750;9.078;2022-08-14T15:01:38;2.40;;;2.03;;
2299;SDS011;1158;48.750;9.078;2022-08-14T15:04:09;2.80;;;2.10;;
2299;SDS011;1158;48.750;9.078;2022-08-14T15:06:36;3.23;;;2.20;;
2299;SDS011;1158;48.750;9.078;2022-08-14T15:09:04;2.70;;;2.03;;
2299;SDS011;1158;48.750;9.078;2022-08-14T15:11:31;2.70;;;2.20;;
2299;SDS011;1158;48.750;9.078;2022-08-14T15:13:58;2.27;;;2.00;;
2299;SDS011;1158;48.750;9.078;2022-08-14T15:16:25;3.23;;;2.33;;
2299;SDS011;1158;48.750;9.078;2022-08-14T15:18:52;3.00;;;2.70;;
2299;SDS011;1158;48.750;9.078;2022-08-14T15:21:20;3.53;;;2.43;;
2299;SDS011;1158;48.750;9.078;2022-08-14T15:23:47;5.03;;;2.70;;
2299;SDS011;1158;48.750;9.078;2022-08-14T15:26:15;4.67;;;2.67;;
2299;SDS011;1158;48.750;9.078;2022-08-14T15:28:42;4.47;;;2.43;;